Ana Sayfa
METAR-TAF:

METAR-TAF

Havaalanları :

Maracaibo, Venezuela

Enlem: 10-34N, Boylam: 071-44W, yükseklik: 66 m

Güncel hava durumu gözlemi

Rapor saat 18:02 UTC de 51 dakika önce yapıldı.
Rüzgar güneydan 5 kt
Sıcaklık 32°C
Nem 59%
Basınç 1012 hPa

METAR: SVMC 251802Z AUTO 19005KT NCD 32/23 Q1012

Saat: 14:53 (18:53 UTC)

Tahmin

Rapor saat 16:00 UTC de 2 saat ve 53 dakika önce yapıldı.
Ayın 25'si saat 18 UTC'den ayın 26'si saat 18 UTC'ye kadar geçerli Tahmin
Rüzgar güneydoğudan 5 kt
Görüş mesafesi 10 km veya daha fazla
1600 ft yükseklikte parçalı bulutlu
Dönüşüyor
ayın 25'si saat 18 UTC'den ayın 25'si saat 22 UTC'ye kadar
Rüzgar güneydan 9 kt
Görüş mesafesi 10 km veya daha fazla
1600 ft yükseklikte parçalı bulutlu
3000 ft yükseklikte parçalı bulutlu

TAF: SVMC 251600Z 2518/2618 14005KT 9999 SCT016 TX35/2518Z TN23/2507Z BECMG 2518/2522 18009KT 9999 SCT016 SCT030

4.000'den fazla havaalanı için hava durumu gözlemleri ve tahminleri (METAR ve TAF raporları).

Kullanılabilir istasyonlar harita üzerinde sarı ve kırmızı noktalarla gösterilir.

İstasyonun adını görmek için fareyi noktanın üzerinde gezdirin.

Sonrasında hava gözlem ve tahminlerini görmek için tıklayın.

Haritayı değiştirmek için: yaklaştırmak için siyah artı işaretli yeşil düğmeye ve uzaklaştırmak için de eksi işaretli düğmeye hızla tıklayın; bitişik haritalar için yeşil okları kullanın.


METAR-TAF: